Time;durP1;ratioP1;P1;durP2;ratioP2;P2;SDS_P1;SDS_P2;PMS_P1;PMS_P2;Temp;Humidity;BMP_temperature;BMP_pressure;BME280_temperature;BME280_humidity;BME280_pressure;Samples;Min_cycle;Max_cycle;Signal;HPM_P1;HPM_P2
2023/06/25 00:03:04;;;;;;;5.90;3.25;;;;;;;19.75;96.35;100990.94;8275300;28;20534;-61
2023/06/25 00:07:05;;;;;;;9.32;3.50;;;;;;;19.78;95.39;100982.31;8273166;28;20042;-61
2023/06/25 00:11:05;;;;;;;5.72;3.47;;;;;;;19.79;95.00;100973.06;8276355;28;20350;-61
2023/06/25 00:15:09;;;;;;;9.95;3.72;;;;;;;19.79;96.19;100970.31;8273563;28;20447;-62
2023/06/25 00:19:10;;;;;;;7.13;3.03;;;;;;;19.87;95.63;100961.97;8274887;28;20447;-62
2023/06/25 00:23:10;;;;;;;6.05;3.65;;;;;;;19.88;95.61;100960.97;8270367;28;20092;-62
2023/06/25 00:27:10;;;;;;;5.05;3.67;;;;;;;19.69;97.29;100961.50;8275388;28;20128;-61
2023/06/25 00:31:12;;;;;;;7.00;3.33;;;;;;;19.69;97.44;100967.00;8273607;28;20397;-61
2023/06/25 00:35:13;;;;;;;6.80;3.80;;;;;;;19.58;96.62;100965.59;8273618;28;20046;-62
2023/06/25 00:39:13;;;;;;;8.20;3.28;;;;;;;19.48;97.53;100976.81;8274496;28;20516;-61
2023/06/25 00:43:15;;;;;;;7.57;3.50;;;;;;;19.41;96.74;100977.75;8274299;28;20136;-61
2023/06/25 00:47:17;;;;;;;8.43;3.60;;;;;;;19.28;96.91;100972.88;8272945;28;20035;-61
2023/06/25 00:51:21;;;;;;;9.85;3.85;;;;;;;19.14;98.81;100965.47;8289682;28;20489;-61
2023/06/25 00:55:22;;;;;;;7.72;4.05;;;;;;;19.09;97.92;100945.13;8272043;28;20104;-61
2023/06/25 00:59:23;;;;;;;7.30;3.92;;;;;;;19.21;97.52;100969.16;8285694;28;20046;-61
2023/06/25 01:03:33;;;;;;;7.00;3.35;;;;;;;19.49;96.44;100951.09;8272881;28;20088;-61
2023/06/25 01:07:36;;;;;;;10.70;3.53;;;;;;;19.36;96.11;100953.63;8274152;28;20042;-61
2023/06/25 01:11:37;;;;;;;12.40;3.77;;;;;;;19.09;98.62;100953.34;8271680;28;20125;-62
2023/06/25 01:15:38;;;;;;;5.90;3.53;;;;;;;18.81;100.00;100943.97;8273439;28;20095;-61
2023/06/25 01:19:40;;;;;;;8.20;3.67;;;;;;;18.78;100.00;100947.94;8271598;28;20489;-61
2023/06/25 01:23:41;;;;;;;10.40;4.18;;;;;;;18.67;100.00;100948.34;8270450;28;20515;-61
2023/06/25 01:27:42;;;;;;;7.25;3.40;;;;;;;18.59;100.00;100940.22;8271112;28;20164;-61
2023/06/25 01:31:42;;;;;;;16.25;4.75;;;;;;;18.62;100.00;100950.81;8273984;28;20088;-61
2023/06/25 01:35:43;;;;;;;8.68;3.88;;;;;;;18.54;100.00;100937.16;8271630;28;20400;-61
2023/06/25 01:39:55;;;;;;;9.57;3.72;;;;;;;18.51;100.00;100931.22;8274391;28;20034;-62
2023/06/25 01:43:56;;;;;;;9.00;4.43;;;;;;;18.53;100.00;100929.13;8268571;28;20141;-61
2023/06/25 01:47:57;;;;;;;6.78;3.30;;;;;;;18.60;100.00;100921.91;8288608;28;20514;-62
2023/06/25 01:52:00;;;;;;;13.13;4.65;;;;;;;18.52;99.21;100913.75;8267812;28;20095;-61
2023/06/25 01:56:00;;;;;;;7.65;4.13;;;;;;;18.29;99.66;100905.47;8272366;28;20046;-62
2023/06/25 02:00:01;;;;;;;11.32;3.67;;;;;;;18.29;99.43;100905.47;8270448;28;20104;-61
2023/06/25 02:04:03;;;;;;;13.70;4.05;;;;;;;18.30;99.20;100907.16;8268920;28;20069;-61
2023/06/25 02:08:04;;;;;;;17.83;4.13;;;;;;;18.25;99.72;100903.28;8270387;28;20046;-61
2023/06/25 02:12:04;;;;;;;12.18;4.35;;;;;;;18.25;98.76;100898.66;8273099;28;20176;-61
2023/06/25 02:16:05;;;;;;;12.52;3.90;;;;;;;18.28;98.47;100892.81;8271773;28;20127;-61
2023/06/25 02:20:06;;;;;;;15.90;4.35;;;;;;;18.21;100.00;100889.09;8271910;28;20282;-61
2023/06/25 02:24:07;;;;;;;10.32;3.53;;;;;;;18.29;97.98;100886.31;8268465;28;20440;-61
2023/06/25 02:28:07;;;;;;;21.70;4.25;;;;;;;18.29;97.14;100899.13;8269812;28;20042;-61
2023/06/25 02:32:08;;;;;;;11.38;4.15;;;;;;;18.23;96.70;100889.75;8270838;28;20053;-61
2023/06/25 02:36:08;;;;;;;11.48;3.88;;;;;;;18.27;95.36;100885.63;8268237;28;20050;-59
2023/06/25 02:40:10;;;;;;;16.42;4.05;;;;;;;18.26;95.52;100894.88;8269394;28;20038;-60
2023/06/25 02:44:11;;;;;;;7.85;3.25;;;;;;;18.17;96.01;100886.91;8276055;28;20347;-61
2023/06/25 02:48:11;;;;;;;8.00;3.55;;;;;;;18.04;96.79;100884.75;8274494;28;20045;-60
2023/06/25 02:52:11;;;;;;;13.93;3.80;;;;;;;17.92;98.34;100897.13;8273406;28;20156;-60
2023/06/25 02:56:12;;;;;;;10.77;4.03;;;;;;;17.93;98.12;100887.88;8276744;28;20038;-59
2023/06/25 03:00:13;;;;;;;10.70;3.90;;;;;;;17.92;97.84;100883.44;8278406;28;20128;-60
2023/06/25 03:04:17;;;;;;;13.40;4.65;;;;;;;17.87;98.35;100883.13;8278829;28;20100;-60
2023/06/25 03:08:18;;;;;;;12.18;4.15;;;;;;;17.86;98.67;100881.44;8276064;28;20389;-59
2023/06/25 03:12:19;;;;;;;14.48;4.13;;;;;;;17.83;99.95;100887.25;8276809;28;20519;-59
2023/06/25 03:16:19;;;;;;;11.43;3.75;;;;;;;17.69;99.96;100881.69;8276498;28;20034;-59
2023/06/25 03:20:20;;;;;;;16.33;3.55;;;;;;;17.50;100.00;100880.22;8277346;28;20400;-60
2023/06/25 03:24:21;;;;;;;13.90;4.47;;;;;;;17.48;100.00;100887.75;8273470;28;20551;-59
2023/06/25 03:28:22;;;;;;;15.73;4.28;;;;;;;17.47;100.00;100888.75;8275124;28;20042;-59
2023/06/25 03:32:23;;;;;;;18.70;4.35;;;;;;;17.51;100.00;100882.75;8273807;28;20121;-60
2023/06/25 03:36:24;;;;;;;20.15;4.65;;;;;;;17.52;100.00;100894.56;8276439;28;20471;-60
2023/06/25 03:40:26;;;;;;;13.63;3.75;;;;;;;17.58;98.77;100877.47;8275362;28;20066;-59
2023/06/25 03:44:26;;;;;;;7.30;3.20;;;;;;;17.80;97.37;100882.13;8277031;28;20042;-60
2023/06/25 03:48:27;;;;;;;10.82;3.97;;;;;;;17.81;97.39;100883.84;8274750;28;20042;-61
2023/06/25 03:52:27;;;;;;;13.30;4.05;;;;;;;17.88;96.13;100876.63;8273382;28;20137;-60
2023/06/25 03:56:28;;;;;;;11.35;3.70;;;;;;;17.94;95.47;100878.66;8274891;28;20149;-60
2023/06/25 04:00:28;;;;;;;9.82;3.85;;;;;;;17.93;96.13;100879.66;8273262;28;20041;-59
2023/06/25 04:04:29;;;;;;;15.13;4.18;;;;;;;17.97;96.34;100871.97;8272598;28;20045;-60
2023/06/25 04:08:29;;;;;;;12.63;4.10;;;;;;;18.09;94.44;100879.59;8278771;28;20077;-60
2023/06/25 04:12:31;;;;;;;13.85;4.18;;;;;;;18.17;93.48;100879.53;8275310;28;20042;-59
2023/06/25 04:16:31;;;;;;;8.90;4.53;;;;;;;18.26;92.40;100872.97;8273743;28;20042;-60
2023/06/25 04:20:32;;;;;;;12.68;4.95;;;;;;;18.33;92.26;100868.47;8275604;28;20484;-60
2023/06/25 04:24:33;;;;;;;13.10;4.53;;;;;;;18.36;92.57;100868.09;8272515;28;20057;-59
2023/06/25 04:28:34;;;;;;;19.70;4.45;;;;;;;18.51;92.69;100871.78;8275987;28;20046;-60
2023/06/25 04:32:36;;;;;;;12.63;4.93;;;;;;;18.75;91.24;100868.00;8273658;28;20092;-59
2023/06/25 04:36:36;;;;;;;8.27;3.88;;;;;;;18.87;90.67;100867.38;8275697;28;20061;-60
2023/06/25 04:40:37;;;;;;;8.60;4.60;;;;;;;18.88;89.50;100865.50;8273458;28;20049;-60
2023/06/25 04:44:39;;;;;;;10.27;3.85;;;;;;;19.12;88.72;100877.06;8274659;28;20042;-60
2023/06/25 04:48:43;;;;;;;8.70;4.05;;;;;;;19.22;87.96;100874.06;8273998;28;20072;-60
2023/06/25 04:52:44;;;;;;;15.13;4.50;;;;;;;19.54;85.83;100875.63;8272763;28;20038;-59
2023/06/25 04:56:44;;;;;;;10.95;3.88;;;;;;;19.55;85.55;100863.63;8272296;28;20045;-60
2023/06/25 05:00:45;;;;;;;7.07;4.15;;;;;;;19.73;84.26;100869.56;8272958;28;20096;-59
2023/06/25 05:04:45;;;;;;;11.05;3.80;;;;;;;19.93;84.38;100859.66;8272319;28;20046;-59
2023/06/25 05:08:46;;;;;;;13.93;4.07;;;;;;;20.12;84.41;100859.03;8273171;28;20124;-60
2023/06/25 05:12:47;;;;;;;11.10;3.58;;;;;;;20.43;82.19;100856.91;8272655;28;20065;-60
2023/06/25 05:16:47;;;;;;;9.23;3.75;;;;;;;20.44;82.42;100864.09;8273965;28;20053;-62
2023/06/25 05:20:48;;;;;;;12.27;3.92;;;;;;;20.54;81.47;100870.97;8271681;28;20420;-61
2023/06/25 05:24:48;;;;;;;8.55;4.05;;;;;;;20.83;80.34;100869.97;8271706;28;20129;-61
2023/06/25 05:28:49;;;;;;;10.65;4.05;;;;;;;21.11;80.31;100879.13;8271092;28;20038;-61
2023/06/25 05:32:49;;;;;;;7.18;3.67;;;;;;;21.05;81.30;100877.16;8269877;28;20129;-61
2023/06/25 05:36:50;;;;;;;5.85;3.85;;;;;;;21.38;81.51;100869.16;8272213;28;20046;-62
2023/06/25 05:40:50;;;;;;;8.32;4.38;;;;;;;21.54;81.09;100886.19;8273212;28;20507;-62
2023/06/25 05:44:50;;;;;;;7.68;4.03;;;;;;;21.62;80.79;100885.19;8271533;28;20050;-61
2023/06/25 05:48:51;;;;;;;10.20;4.30;;;;;;;21.74;80.61;100876.16;8271984;28;20046;-59
2023/06/25 05:52:52;;;;;;;6.70;4.22;;;;;;;22.13;79.96;100875.47;8269270;28;20050;-59
2023/06/25 05:56:52;;;;;;;13.07;4.68;;;;;;;22.17;79.86;100880.38;8266653;28;20095;-60
2023/06/25 06:00:52;;;;;;;11.60;5.50;;;;;;;22.31;79.57;100876.63;8269928;28;20385;-60
2023/06/25 06:04:53;;;;;;;8.80;4.90;;;;;;;22.76;78.80;100867.63;8270996;28;20065;-62
2023/06/25 06:08:53;;;;;;;10.52;5.13;;;;;;;23.09;77.69;100875.91;8271093;28;20285;-61
2023/06/25 06:12:54;;;;;;;10.02;5.07;;;;;;;23.06;78.05;100868.88;8271877;28;20038;-62
2023/06/25 06:16:54;;;;;;;10.48;5.10;;;;;;;23.19;78.38;100866.13;8271121;28;20042;-61
2023/06/25 06:20:55;;;;;;;8.60;4.82;;;;;;;23.59;77.76;100866.06;8270291;28;20145;-61
2023/06/25 06:24:55;;;;;;;7.80;4.85;;;;;;;23.80;75.70;100860.28;8270454;28;20440;-61
2023/06/25 06:28:56;;;;;;;9.18;4.80;;;;;;;24.04;76.90;100859.56;8271177;28;20572;-62
2023/06/25 06:32:56;;;;;;;10.20;4.78;;;;;;;24.28;73.94;100853.28;8272528;28;20188;-61
2023/06/25 06:36:57;;;;;;;11.90;5.10;;;;;;;24.59;72.43;100856.06;8269684;28;20070;-61
2023/06/25 06:40:58;;;;;;;8.70;5.50;;;;;;;24.57;70.15;100859.06;8271392;28;20053;-61
2023/06/25 06:44:58;;;;;;;8.35;4.80;;;;;;;24.82;70.11;100845.28;8269537;28;20042;-61
2023/06/25 06:48:58;;;;;;;5.70;4.50;;;;;;;25.15;69.48;100856.91;8272245;28;20140;-61
2023/06/25 06:52:59;;;;;;;7.65;4.53;;;;;;;25.29;68.89;100847.41;8269377;28;20038;-61
2023/06/25 06:56:59;;;;;;;10.33;4.93;;;;;;;25.44;67.41;100856.25;8268231;28;20104;-61
2023/06/25 07:01:00;;;;;;;7.07;4.33;;;;;;;25.83;68.09;100844.69;8269363;28;20289;-61
2023/06/25 07:05:02;;;;;;;9.50;4.97;;;;;;;26.17;66.18;100846.84;8268085;28;20282;-61
2023/06/25 07:09:02;;;;;;;6.90;4.35;;;;;;;26.56;66.21;100845.44;8272212;28;20540;-61
2023/06/25 07:13:02;;;;;;;7.20;4.20;;;;;;;26.86;65.25;100846.25;8268336;28;20404;-61
2023/06/25 07:17:03;;;;;;;6.63;4.53;;;;;;;26.96;62.84;100840.13;8268400;28;20047;-61
2023/06/25 07:21:05;;;;;;;5.70;4.18;;;;;;;27.11;63.44;100849.66;8267103;28;20278;-62
2023/06/25 07:25:09;;;;;;;7.13;4.60;;;;;;;27.25;62.96;100853.09;8271026;28;20049;-62
2023/06/25 07:29:09;;;;;;;6.18;4.40;;;;;;;27.55;59.50;100845.47;8272550;28;20060;-61
2023/06/25 07:33:10;;;;;;;6.22;4.88;;;;;;;27.58;61.74;100850.53;8274496;28;20536;-62
2023/06/25 07:37:10;;;;;;;11.63;4.68;;;;;;;27.79;62.04;100847.13;8275533;28;20038;-62
2023/06/25 07:41:11;;;;;;;5.07;4.57;;;;;;;27.86;60.11;100842.31;8274950;28;20617;-60
2023/06/25 07:45:11;;;;;;;8.73;5.10;;;;;;;28.02;60.77;100844.31;8276576;28;20057;-60
2023/06/25 07:49:12;;;;;;;7.28;4.40;;;;;;;28.35;61.02;100841.66;8274305;28;20046;-60
2023/06/25 07:53:12;;;;;;;4.53;4.07;;;;;;;28.46;59.67;100838.00;8271268;28;20410;-58
2023/06/25 07:57:13;;;;;;;6.57;4.67;;;;;;;28.87;60.08;100829.28;8273335;28;20133;-59
2023/06/25 08:01:13;;;;;;;9.07;4.95;;;;;;;28.84;58.44;100837.31;8272865;28;20368;-60
2023/06/25 08:05:13;;;;;;;7.00;4.32;;;;;;;29.17;58.61;100827.03;8274336;28;20129;-60
2023/06/25 08:09:14;;;;;;;5.90;5.00;;;;;;;29.22;57.85;100827.13;8273060;28;20038;-60
2023/06/25 08:13:15;;;;;;;7.28;3.90;;;;;;;29.29;56.20;100827.78;8275782;28;20042;-60
2023/06/25 08:17:15;;;;;;;5.30;4.18;;;;;;;29.66;56.09;100822.50;8259608;28;20045;-60
2023/06/25 08:21:16;;;;;;;8.17;4.87;;;;;;;29.50;55.17;100838.16;8264696;28;20092;-59
2023/06/25 08:25:26;;;;;;;4.60;4.07;;;;;;;29.65;55.23;100827.25;8268484;28;20369;-60
2023/06/25 08:29:26;;;;;;;5.55;4.40;;;;;;;29.69;55.02;100824.75;8268736;28;20042;-60
2023/06/25 08:33:27;;;;;;;5.07;4.20;;;;;;;29.64;54.23;100828.31;8268266;28;20564;-60
2023/06/25 08:37:27;;;;;;;4.72;4.22;;;;;;;29.88;53.73;100823.34;8270408;28;20038;-61
2023/06/25 08:41:28;;;;;;;11.57;4.67;;;;;;;29.99;54.79;100817.66;8268845;28;20038;-61
2023/06/25 08:45:29;;;;;;;5.72;4.55;;;;;;;30.04;54.38;100814.91;8268139;28;20280;-60
2023/06/25 08:49:30;;;;;;;5.22;4.72;;;;;;;30.25;54.14;100816.03;8268299;28;20493;-60
2023/06/25 08:53:31;;;;;;;4.65;4.15;;;;;;;30.57;53.43;100810.50;8266588;28;20529;-60
2023/06/25 08:57:32;;;;;;;4.72;4.32;;;;;;;30.44;53.88;100809.81;8267698;28;20117;-60
2023/06/25 09:01:32;;;;;;;5.95;4.20;;;;;;;30.68;53.73;100812.28;8268497;28;20445;-59
2023/06/25 09:05:33;;;;;;;9.50;4.68;;;;;;;30.93;51.78;100802.22;8263576;28;20401;-60
2023/06/25 09:09:34;;;;;;;6.57;4.28;;;;;;;30.93;52.32;100801.38;8269158;28;20385;-60
2023/06/25 09:13:35;;;;;;;5.07;4.47;;;;;;;31.20;52.66;100799.34;8269280;28;20129;-60
2023/06/25 09:17:36;;;;;;;5.13;4.63;;;;;;;31.38;50.72;100799.75;8263819;28;20042;-60
2023/06/25 09:21:38;;;;;;;9.25;4.30;;;;;;;31.20;51.08;100790.97;8269379;28;20034;-60
2023/06/25 09:25:39;;;;;;;6.15;4.22;;;;;;;31.49;50.94;100779.16;8262772;28;20049;-60
2023/06/25 09:29:40;;;;;;;4.67;4.10;;;;;;;31.60;50.33;100785.63;8274613;28;20043;-60
2023/06/25 09:33:40;;;;;;;5.30;4.72;;;;;;;31.82;50.10;100777.94;8266951;28;20278;-62
2023/06/25 09:37:40;;;;;;;4.43;3.92;;;;;;;31.98;47.01;100771.28;8269213;28;20042;-62
2023/06/25 09:41:41;;;;;;;7.70;4.40;;;;;;;31.69;47.53;100772.81;8268576;28;20084;-62
2023/06/25 09:45:44;;;;;;;5.35;3.72;;;;;;;32.13;46.73;100774.97;8269424;28;20161;-62
2023/06/25 09:49:45;;;;;;;4.57;4.00;;;;;;;32.02;47.59;100778.03;8267349;28;20039;-62
2023/06/25 09:53:52;;;;;;;4.32;3.92;;;;;;;32.23;47.84;100768.53;8262543;28;20045;-62
2023/06/25 09:57:54;;;;;;;4.68;4.22;;;;;;;32.68;48.08;100768.66;8266445;28;20448;-62
2023/06/25 10:01:54;;;;;;;5.25;4.10;;;;;;;32.90;47.59;100769.22;8269584;28;20412;-62
2023/06/25 10:05:55;;;;;;;4.82;4.38;;;;;;;33.76;44.44;100765.13;8268153;28;20050;-62
2023/06/25 10:09:56;;;;;;;5.03;3.78;;;;;;;34.30;44.19;100756.72;8270414;28;20046;-62
2023/06/25 10:13:58;;;;;;;6.60;4.25;;;;;;;34.95;42.65;100755.44;8268361;28;20046;-62
2023/06/25 10:18:01;;;;;;;4.95;4.43;;;;;;;36.47;40.67;100754.13;8274279;28;20046;-62
2023/06/25 10:22:05;;;;;;;4.15;3.75;;;;;;;37.59;40.06;100760.31;8265477;28;20045;-63
2023/06/25 10:26:06;;;;;;;5.10;4.47;;;;;;;37.65;37.49;100758.28;8265211;28;20050;-62
2023/06/25 10:30:14;;;;;;;6.20;4.32;;;;;;;37.80;38.27;100750.31;8270964;28;20136;-62
2023/06/25 10:34:15;;;;;;;5.15;3.70;;;;;;;38.29;39.30;100741.03;8266465;28;20568;-62
2023/06/25 10:38:16;;;;;;;4.50;3.67;;;;;;;38.49;39.17;100741.41;8270247;28;20593;-62
2023/06/25 10:42:16;;;;;;;3.78;3.47;;;;;;;38.78;40.50;100732.47;8270892;28;20042;-66
2023/06/25 10:46:17;;;;;;;4.47;4.07;;;;;;;39.40;36.44;100722.94;8269054;28;20389;-62
2023/06/25 10:50:17;;;;;;;4.05;3.58;;;;;;;38.46;38.83;100724.25;8272788;28;20180;-62
2023/06/25 10:54:19;;;;;;;3.95;3.50;;;;;;;38.91;37.56;100717.44;8264263;28;20046;-62
2023/06/25 10:58:23;;;;;;;3.97;3.60;;;;;;;39.17;36.04;100712.78;8270659;28;20105;-63
2023/06/25 11:02:25;;;;;;;4.40;4.00;;;;;;;39.66;37.86;100706.84;8272643;28;20046;-63
2023/06/25 11:06:25;;;;;;;3.73;3.43;;;;;;;38.20;37.16;100714.72;8276856;28;20049;-63
2023/06/25 11:10:26;;;;;;;4.32;4.03;;;;;;;38.50;37.89;100699.81;8278225;28;20819;-64
2023/06/25 11:14:27;;;;;;;4.22;3.53;;;;;;;38.65;37.85;100699.47;8266616;28;20556;-62
2023/06/25 11:18:27;;;;;;;3.75;3.45;;;;;;;39.24;35.84;100696.16;8255821;28;20065;-62
2023/06/25 11:22:28;;;;;;;4.13;3.80;;;;;;;38.82;36.66;100699.59;8259287;28;20042;-62
2023/06/25 11:26:38;;;;;;;5.28;3.88;;;;;;;38.98;36.57;100686.72;8261520;28;20730;-63
2023/06/25 11:30:40;;;;;;;4.15;3.85;;;;;;;39.45;36.91;100680.28;8251185;28;20574;-61
2023/06/25 11:34:44;;;;;;;4.07;3.45;;;;;;;39.56;35.34;100678.84;8257146;28;20046;-61
2023/06/25 11:38:45;;;;;;;3.90;3.47;;;;;;;39.42;35.94;100691.47;8267875;28;20087;-61
2023/06/25 11:42:46;;;;;;;4.00;3.70;;;;;;;39.57;36.78;100677.66;8264158;28;20424;-61
2023/06/25 11:46:51;;;;;;;5.38;3.33;;;;;;;40.14;35.40;100670.81;8259926;28;21094;-62
2023/06/25 11:50:52;;;;;;;4.57;3.60;;;;;;;39.53;35.74;100665.34;8265700;28;20552;-61
2023/06/25 11:54:52;;;;;;;4.15;3.75;;;;;;;39.54;36.14;100666.19;8251555;28;20460;-61
2023/06/25 11:58:53;;;;;;;3.87;3.47;;;;;;;39.51;36.56;100673.31;8264001;28;20042;-61
2023/06/25 12:02:53;;;;;;;4.03;3.72;;;;;;;38.46;37.33;100667.69;8272725;28;20772;-61
2023/06/25 12:06:54;;;;;;;4.45;3.67;;;;;;;39.42;36.61;100655.47;8269011;28;20046;-61
2023/06/25 12:10:54;;;;;;;3.73;3.43;;;;;;;38.37;36.70;100644.19;8270678;28;20043;-60
2023/06/25 12:14:55;;;;;;;4.30;3.90;;;;;;;36.57;38.81;100641.25;8256956;28;20277;-61
2023/06/25 12:18:56;;;;;;;4.55;4.15;;;;;;;35.35;40.56;100639.72;8274713;28;20092;-60
2023/06/25 12:22:56;;;;;;;4.93;3.63;;;;;;;34.25;42.19;100636.03;8269367;28;20046;-65
2023/06/25 12:26:57;;;;;;;4.97;4.38;;;;;;;33.76;44.31;100633.25;8275880;28;20046;-60
2023/06/25 12:30:57;;;;;;;5.80;4.20;;;;;;;33.29;43.83;100613.28;8260985;28;20548;-60
2023/06/25 12:34:58;;;;;;;3.78;3.42;;;;;;;33.08;45.51;100620.09;8264270;28;20277;-60
2023/06/25 12:39:00;;;;;;;4.50;4.10;;;;;;;32.95;47.54;100606.72;8268183;28;20043;-60
2023/06/25 12:43:01;;;;;;;4.30;3.90;;;;;;;33.42;45.00;100607.09;8267270;28;20057;-60
2023/06/25 12:47:02;;;;;;;3.85;3.42;;;;;;;33.76;44.51;100607.19;8267967;28;20077;-61
2023/06/25 12:51:02;;;;;;;4.53;4.13;;;;;;;33.30;43.29;100598.13;8268583;28;20046;-60
2023/06/25 12:55:05;;;;;;;4.10;3.70;;;;;;;33.13;45.62;100594.88;8262752;28;20133;-60
2023/06/25 12:59:06;;;;;;;4.88;4.07;;;;;;;33.08;44.65;100597.69;8268046;28;20251;-60
2023/06/25 13:03:06;;;;;;;4.25;3.65;;;;;;;33.21;44.50;100588.66;8269131;28;20042;-60
2023/06/25 13:07:07;;;;;;;4.72;3.53;;;;;;;32.83;43.68;100582.88;8264173;28;20042;-61
2023/06/25 13:11:07;;;;;;;4.17;3.77;;;;;;;32.92;44.40;100582.06;8269457;28;20054;-61
2023/06/25 13:15:08;;;;;;;7.03;3.85;;;;;;;32.62;44.38;100570.91;8271266;28;20281;-60
2023/06/25 13:19:08;;;;;;;4.63;3.30;;;;;;;32.55;46.32;100575.97;8269139;28;20119;-61
2023/06/25 13:23:09;;;;;;;7.40;3.83;;;;;;;32.71;44.67;100563.59;8265996;28;20116;-63
2023/06/25 13:27:09;;;;;;;4.23;3.53;;;;;;;32.63;45.42;100561.41;8266054;28;20097;-61
2023/06/25 13:31:10;;;;;;;5.45;4.00;;;;;;;32.52;43.92;100558.88;8268420;28;20277;-61
2023/06/25 13:35:10;;;;;;;6.57;3.67;;;;;;;32.57;44.44;100556.09;8268196;28;20046;-59
2023/06/25 13:39:10;;;;;;;4.47;3.90;;;;;;;32.69;44.64;100554.63;8265058;28;20695;-59
2023/06/25 13:43:11;;;;;;;5.05;3.80;;;;;;;32.80;46.13;100550.69;8268129;28;20457;-59
2023/06/25 13:47:13;;;;;;;5.65;3.85;;;;;;;32.63;45.81;100543.75;8269420;28;20259;-59
2023/06/25 13:51:14;;;;;;;4.45;4.05;;;;;;;32.59;45.57;100549.06;8266509;28;20077;-59
2023/06/25 13:55:15;;;;;;;4.72;4.00;;;;;;;32.77;45.11;100537.25;8266165;28;20038;-59
2023/06/25 13:59:15;;;;;;;4.55;4.15;;;;;;;32.69;43.91;100540.63;8277978;28;20277;-59
2023/06/25 14:03:16;;;;;;;5.43;4.32;;;;;;;33.20;44.01;100528.13;8266583;28;20053;-64
2023/06/25 14:07:16;;;;;;;4.55;3.83;;;;;;;33.13;45.01;100526.75;8265801;28;20045;-59
2023/06/25 14:11:17;;;;;;;4.50;4.10;;;;;;;33.17;44.75;100523.09;8268042;28;20585;-59
2023/06/25 14:15:17;;;;;;;4.68;4.10;;;;;;;32.97;44.12;100513.94;8268529;28;20058;-59
2023/06/25 14:19:18;;;;;;;4.40;4.00;;;;;;;32.83;46.04;100510.91;8267259;28;20079;-59
2023/06/25 14:23:19;;;;;;;4.75;4.03;;;;;;;32.89;45.65;100503.31;8268933;28;20477;-59
2023/06/25 14:27:20;;;;;;;4.68;4.20;;;;;;;32.86;44.83;100510.34;8263912;28;20120;-59
2023/06/25 14:31:20;;;;;;;5.32;4.40;;;;;;;33.11;44.69;100501.81;8265384;28;20132;-59
2023/06/25 14:35:20;;;;;;;4.63;3.95;;;;;;;33.00;45.95;100503.00;8268419;28;20037;-59
2023/06/25 14:39:21;;;;;;;4.40;4.00;;;;;;;32.63;44.13;100488.59;8270266;28;20062;-59
2023/06/25 14:43:21;;;;;;;4.47;4.07;;;;;;;32.82;46.34;100486.81;8275320;28;20850;-59
2023/06/25 14:47:22;;;;;;;4.40;4.00;;;;;;;32.76;45.94;100493.56;8274781;28;20273;-59
2023/06/25 14:51:22;;;;;;;5.30;3.92;;;;;;;32.94;44.87;100487.34;8273991;28;20400;-59
2023/06/25 14:55:23;;;;;;;4.30;3.90;;;;;;;32.70;44.85;100486.31;8270241;28;20069;-59
2023/06/25 14:59:23;;;;;;;4.60;4.13;;;;;;;32.70;44.58;100489.09;8271567;28;20766;-59
2023/06/25 15:03:23;;;;;;;4.67;4.20;;;;;;;32.89;45.99;100481.75;8274375;28;20049;-60
2023/06/25 15:07:24;;;;;;;4.63;4.00;;;;;;;32.77;45.35;100471.97;8270732;28;20639;-59
2023/06/25 15:11:25;;;;;;;6.90;4.40;;;;;;;32.83;45.20;100462.41;8272342;28;20400;-59
2023/06/25 15:15:26;;;;;;;5.25;4.75;;;;;;;32.78;45.06;100460.47;8272050;28;20304;-62
2023/06/25 15:19:26;;;;;;;5.67;3.63;;;;;;;32.75;45.04;100452.66;8274271;28;20073;-62
2023/06/25 15:23:27;;;;;;;4.23;3.93;;;;;;;32.74;44.61;100456.59;8268678;28;20045;-61
2023/06/25 15:27:27;;;;;;;5.45;4.05;;;;;;;32.77;45.65;100446.75;8271313;28;20332;-61
2023/06/25 15:31:28;;;;;;;6.53;4.47;;;;;;;32.81;46.16;100443.09;8266253;28;20042;-61
2023/06/25 15:35:28;;;;;;;4.28;3.97;;;;;;;32.84;44.76;100428.50;8268213;28;20642;-61
2023/06/25 15:39:29;;;;;;;6.67;4.43;;;;;;;32.89;44.72;100427.69;8273814;28;20612;-61
2023/06/25 15:43:29;;;;;;;5.65;4.38;;;;;;;32.84;44.70;100428.50;8271271;28;20270;-61
2023/06/25 15:47:30;;;;;;;5.35;4.47;;;;;;;33.06;44.60;100414.97;8270125;28;20042;-61
2023/06/25 15:51:30;;;;;;;4.70;4.20;;;;;;;32.72;43.99;100419.63;8272080;28;20049;-61
2023/06/25 15:55:31;;;;;;;5.05;4.47;;;;;;;32.65;45.74;100410.69;8269899;28;20373;-61
2023/06/25 15:59:31;;;;;;;4.68;4.05;;;;;;;32.79;45.33;100403.34;8269061;28;20378;-62
2023/06/25 16:03:32;;;;;;;5.47;3.70;;;;;;;32.95;44.79;100404.09;8264493;28;20042;-61
2023/06/25 16:07:33;;;;;;;4.72;4.07;;;;;;;32.99;44.85;100403.25;8271690;28;20650;-61
2023/06/25 16:11:35;;;;;;;5.07;4.10;;;;;;;32.89;45.36;100397.72;8273010;28;20144;-61
2023/06/25 16:15:36;;;;;;;5.10;3.65;;;;;;;32.90;45.50;100392.94;8271490;28;20134;-62
2023/06/25 16:19:37;;;;;;;6.60;4.70;;;;;;;32.97;45.33;100387.84;8270065;28;20049;-61
2023/06/25 16:23:37;;;;;;;6.32;3.75;;;;;;;32.99;45.53;100392.03;8262198;28;20293;-61
2023/06/25 16:27:38;;;;;;;4.50;3.90;;;;;;;32.91;45.62;100389.88;8269260;28;20496;-61
2023/06/25 16:31:39;;;;;;;4.93;4.28;;;;;;;32.87;46.21;100394.34;8267458;28;20756;-59
2023/06/25 16:35:39;;;;;;;4.47;4.03;;;;;;;32.96;45.67;100389.00;8268397;28;20034;-59
2023/06/25 16:39:40;;;;;;;7.15;5.03;;;;;;;32.98;45.36;100384.75;8271436;28;20054;-59
2023/06/25 16:43:40;;;;;;;5.20;4.22;;;;;;;32.91;44.97;100387.06;8271354;28;20771;-59
2023/06/25 16:47:41;;;;;;;6.10;4.22;;;;;;;32.85;45.51;100382.59;8269224;28;20042;-59
2023/06/25 16:51:41;;;;;;;4.57;4.18;;;;;;;32.86;46.75;100384.28;8264330;28;20092;-59
2023/06/25 16:55:42;;;;;;;4.22;3.83;;;;;;;32.95;47.44;100378.88;8264709;28;20126;-59
2023/06/25 16:59:42;;;;;;;4.30;3.88;;;;;;;32.85;46.86;100379.78;8266225;28;20034;-59
2023/06/25 17:03:43;;;;;;;5.53;4.50;;;;;;;32.69;45.69;100366.16;8268336;28;20493;-59
2023/06/25 17:07:43;;;;;;;4.65;4.25;;;;;;;32.72;45.78;100363.59;8266362;28;20650;-59
2023/06/25 17:11:43;;;;;;;5.32;4.53;;;;;;;32.72;46.42;100357.19;8268625;28;20070;-59
2023/06/25 17:15:44;;;;;;;4.68;4.10;;;;;;;32.66;47.60;100356.38;8272190;28;20061;-59
2023/06/25 17:19:45;;;;;;;7.70;4.40;;;;;;;32.60;47.51;100354.75;8272221;28;20038;-59
2023/06/25 17:23:45;;;;;;;4.65;4.22;;;;;;;32.52;47.38;100352.53;8270331;28;20106;-59
2023/06/25 17:27:46;;;;;;;4.93;4.43;;;;;;;32.49;48.72;100353.09;8271469;28;20038;-59
2023/06/25 17:31:46;;;;;;;5.30;4.80;;;;;;;32.36;48.89;100359.34;8271402;28;20278;-61
2023/06/25 17:35:47;;;;;;;4.57;4.18;;;;;;;32.39;49.44;100347.56;8273102;28;20045;-59
2023/06/25 17:39:48;;;;;;;4.60;4.13;;;;;;;32.34;48.98;100358.78;8272429;28;20133;-59
2023/06/25 17:43:48;;;;;;;4.88;4.47;;;;;;;32.33;48.44;100354.28;8271861;28;20046;-59
2023/06/25 17:47:48;;;;;;;5.22;4.50;;;;;;;32.22;49.90;100359.09;8273116;28;20038;-59
2023/06/25 17:51:49;;;;;;;5.10;4.60;;;;;;;32.15;49.27;100357.72;8268848;28;20521;-59
2023/06/25 17:55:49;;;;;;;6.83;4.50;;;;;;;32.11;49.18;100356.63;8260232;28;20284;-59
2023/06/25 17:59:52;;;;;;;4.90;4.30;;;;;;;32.08;49.58;100351.59;8260592;28;20139;-59
2023/06/25 18:03:53;;;;;;;6.22;4.35;;;;;;;31.99;49.69;100356.09;8269229;28;20505;-59
2023/06/25 18:07:53;;;;;;;6.65;4.20;;;;;;;31.91;50.08;100356.66;8270369;28;20130;-59
2023/06/25 18:11:54;;;;;;;4.67;4.17;;;;;;;31.75;51.15;100355.00;8287991;28;20054;-59
2023/06/25 18:15:54;;;;;;;5.47;4.93;;;;;;;31.52;51.37;100344.41;8270070;28;20281;-59
2023/06/25 18:19:55;;;;;;;5.72;4.72;;;;;;;31.31;51.48;100351.13;8270303;28;20068;-59
2023/06/25 18:23:56;;;;;;;5.90;4.53;;;;;;;31.18;51.69;100351.69;8267444;28;20046;-61
2023/06/25 18:27:56;;;;;;;4.68;4.20;;;;;;;31.11;52.36;100351.97;8270786;28;20057;-61
2023/06/25 18:31:57;;;;;;;6.63;5.30;;;;;;;31.00;52.51;100338.25;8272323;28;20068;-61
2023/06/25 18:35:59;;;;;;;5.60;4.50;;;;;;;30.98;51.61;100351.69;8269815;28;20034;-61
2023/06/25 18:39:59;;;;;;;5.15;4.65;;;;;;;30.94;51.36;100344.97;8252768;28;20058;-61